createdAt,value
2023-12-23T07:58:50.047Z,97657.63
2023-12-23T08:00:53.083Z,97649.75
2023-12-23T08:02:56.013Z,97647.41
2023-12-23T08:04:59.613Z,97647.25
2023-12-23T08:07:02.591Z,97648.56
2023-12-23T08:09:05.696Z,97651.06
2023-12-23T08:11:08.792Z,97644.97
2023-12-23T08:13:11.608Z,97640.31
2023-12-23T08:15:14.501Z,97645.59
2023-12-23T08:17:17.328Z,97637.22
2023-12-23T08:19:22.196Z,97637.91
2023-12-23T08:21:25.468Z,97644.34
2023-12-23T08:23:28.400Z,97635.63
2023-12-23T08:25:31.195Z,97644.84
2023-12-23T08:27:34.096Z,97649.41
2023-12-23T08:29:37.013Z,97638.63
2023-12-23T08:31:46.546Z,97643.03
2023-12-23T08:33:50.023Z,97641.91
2023-12-23T08:35:53.019Z,97639.72
2023-12-23T08:37:55.826Z,97629.44
2023-12-23T08:39:58.682Z,97627.25
2023-12-23T08:42:01.474Z,97618.34
2023-12-23T08:44:04.971Z,97617.13
2023-12-23T08:46:07.841Z,97612.06
2023-12-23T08:48:10.693Z,97612.94
2023-12-23T08:50:13.613Z,97609.34
2023-12-23T08:52:16.577Z,97608.34
2023-12-23T08:54:19.367Z,97603.75
2023-12-23T08:56:22.150Z,97600.94
2023-12-23T08:58:26.544Z,97597.34
2023-12-23T09:00:29.530Z,97586.75
2023-12-23T09:02:32.586Z,97589.13
2023-12-23T09:04:35.659Z,97583.84
2023-12-23T09:06:38.534Z,97592.72
2023-12-23T09:08:41.432Z,97584.75
2023-12-23T09:10:44.357Z,97581.03
2023-12-23T09:12:47.333Z,97592.34
2023-12-23T09:14:53.077Z,97585.94
2023-12-23T09:16:55.888Z,97586.25
2023-12-23T09:18:58.770Z,97583.72
2023-12-23T09:21:01.789Z,97582.44
2023-12-23T09:23:04.679Z,97586.44
2023-12-23T09:25:07.746Z,97588.94
2023-12-23T09:27:10.500Z,97589.03
2023-12-23T09:29:13.410Z,97596.75
2023-12-23T09:31:16.264Z,97582.44
2023-12-23T09:33:19.108Z,97590.25
2023-12-23T09:35:22.071Z,97581.34
2023-12-23T09:37:24.974Z,97571.56
2023-12-23T09:39:27.818Z,97573.13
2023-12-23T09:41:30.805Z,97570.72
2023-12-23T09:43:34.333Z,97578.16
2023-12-23T09:45:38.933Z,97569.75
2023-12-23T09:47:41.937Z,97559.66
2023-12-23T09:49:44.935Z,97553.56
2023-12-23T09:51:48.899Z,97560.44
2023-12-23T09:53:57.446Z,97558.06
2023-12-23T09:56:00.348Z,97562.22
2023-12-23T09:58:03.368Z,97547.75
2023-12-23T10:00:06.971Z,97544.84
2023-12-23T10:02:09.936Z,97557.75
2023-12-23T10:04:12.976Z,97548.91
2023-12-23T10:06:20.036Z,97555.03
2023-12-23T10:08:24.852Z,97562.31
2023-12-23T10:10:27.899Z,97558.81
2023-12-23T10:12:30.686Z,97567.19
2023-12-23T10:14:33.585Z,97547.84
2023-12-23T10:16:38.676Z,97552.13
2023-12-23T10:18:43.250Z,97542.03
2023-12-23T10:20:46.877Z,97546.22
2023-12-23T10:22:50.488Z,97551.03
2023-12-23T10:24:53.469Z,97543.31
2023-12-23T10:26:57.972Z,97538.19
2023-12-23T10:29:05.669Z,97543.09
2023-12-23T10:31:13.044Z,97538.19
2023-12-23T10:33:18.005Z,97550.38
2023-12-23T10:35:21.696Z,97544.91
2023-12-23T10:37:26.347Z,97546.59
2023-12-23T10:39:38.715Z,97536.91
2023-12-23T10:41:51.667Z,97543.09
2023-12-23T10:43:56.040Z,97540.41
2023-12-23T10:46:00.631Z,97535.22
2023-12-23T10:48:05.727Z,97535.59
2023-12-23T10:50:10.817Z,97534.81
2023-12-23T10:52:15.533Z,97531.50
2023-12-23T10:54:19.768Z,97524.94
2023-12-23T10:56:24.007Z,97529.31
2023-12-23T10:58:28.370Z,97518.53
2023-12-23T11:00:31.763Z,97518.81
2023-12-23T11:02:36.600Z,97518.63
2023-12-23T11:04:42.981Z,97515.53
2023-12-23T11:06:48.107Z,97524.78
2023-12-23T11:08:52.851Z,97519.38
2023-12-23T11:10:56.175Z,97504.59
2023-12-23T11:13:01.313Z,97494.31
2023-12-23T11:15:05.706Z,97484.06
2023-12-23T11:17:31.986Z,97497.59
2023-12-23T11:19:59.297Z,97483.31
2023-12-23T11:22:30.190Z,97471.75
2023-12-23T11:24:52.575Z,97473.84
2023-12-23T11:26:55.631Z,97467.38
2023-12-23T11:28:58.514Z,97464.97
2023-12-23T11:31:02.554Z,97468.75
2023-12-23T11:33:05.878Z,97468.75
2023-12-23T11:35:13.919Z,97472.84
2023-12-23T11:37:17.192Z,97464.78
2023-12-23T11:39:19.995Z,97454.78
2023-12-23T11:41:23.395Z,97456.97
2023-12-23T11:43:26.377Z,97444.88
2023-12-23T11:45:29.722Z,97446.69
2023-12-23T11:47:32.602Z,97443.50
2023-12-23T11:49:35.842Z,97448.28
2023-12-23T11:51:40.432Z,97452.97
2023-12-23T11:53:44.832Z,97450.47
2023-12-23T11:55:48.761Z,97438.88
2023-12-23T11:57:51.765Z,97448.38
2023-12-23T11:59:56.746Z,97452.19
2023-12-23T12:01:59.529Z,97451.88
2023-12-23T12:04:02.622Z,97448.09
2023-12-23T12:06:05.771Z,97434.91
2023-12-23T12:08:08.686Z,97443.19
2023-12-23T12:10:15.184Z,97432.69
2023-12-23T12:12:18.783Z,97419.72
2023-12-23T12:14:21.555Z,97423.50
2023-12-23T12:16:24.475Z,97423.50
2023-12-23T12:18:27.440Z,97421.81
2023-12-23T12:20:30.489Z,97421.22
2023-12-23T12:22:33.388Z,97422.84
2023-12-23T12:24:36.095Z,97422.84
2023-12-23T12:26:38.997Z,97427.50
2023-12-23T12:28:43.671Z,97421.53
2023-12-23T12:30:48.603Z,97425.31
2023-12-23T12:32:53.533Z,97438.28
2023-12-23T12:35:07.855Z,97431.03
2023-12-23T12:37:11.868Z,97435.41
2023-12-23T12:39:21.297Z,97439.50
2023-12-23T12:41:29.543Z,97428.50
2023-12-23T12:43:36.917Z,97448.88
2023-12-23T12:45:43.390Z,97434.09
2023-12-23T12:47:51.171Z,97437.19
2023-12-23T12:50:07.770Z,97428.22
2023-12-23T12:52:13.290Z,97437.09
2023-12-23T12:54:16.882Z,97428.22
2023-12-23T12:56:23.163Z,97420.72
2023-12-23T12:58:26.380Z,97426.63
2023-12-23T13:00:29.181Z,97425.28
2023-12-23T13:02:32.237Z,97424.81
2023-12-23T13:04:37.405Z,97421.00
2023-12-23T13:06:41.641Z,97421.00
2023-12-23T13:08:44.539Z,97413.53
2023-12-23T13:10:48.369Z,97415.44
2023-12-23T13:12:51.718Z,97400.34
2023-12-23T13:14:54.740Z,97405.44
2023-12-23T13:16:57.625Z,97407.81
2023-12-23T13:19:01.493Z,97414.72
2023-12-23T13:21:04.540Z,97411.25
2023-12-23T13:23:07.318Z,97408.03
2023-12-23T13:25:11.095Z,97413.22
2023-12-23T13:27:14.131Z,97402.44
2023-12-23T13:29:18.287Z,97409.59
2023-12-23T13:31:22.144Z,97410.63
2023-12-23T13:33:25.145Z,97414.09
2023-12-23T13:35:28.964Z,97412.63
2023-12-23T13:37:32.632Z,97415.09
2023-12-23T13:39:35.651Z,97412.09
2023-12-23T13:41:38.484Z,97405.13
2023-12-23T13:43:41.354Z,97407.50
2023-12-23T13:45:44.428Z,97393.34
2023-12-23T13:47:47.711Z,97399.81
2023-12-23T13:49:51.237Z,97390.66
2023-12-23T13:51:54.193Z,97393.34
2023-12-23T13:53:57.046Z,97394.34
2023-12-23T13:55:59.960Z,97394.81
2023-12-23T13:58:03.228Z,97395.03
2023-12-23T14:00:06.703Z,97395.16
2023-12-23T14:02:09.938Z,97394.81
2023-12-23T14:04:12.799Z,97397.25
2023-12-23T14:06:15.722Z,97391.56
2023-12-23T14:08:18.543Z,97392.63
2023-12-23T14:10:21.375Z,97391.84
2023-12-23T14:12:24.967Z,97390.25
2023-12-23T14:14:27.831Z,97392.13
2023-12-23T14:16:32.178Z,97387.06
2023-12-23T14:18:35.094Z,97380.06
2023-12-23T14:20:38.072Z,97385.06
2023-12-23T14:22:40.895Z,97382.38
2023-12-23T14:24:43.966Z,97379.88
2023-12-23T14:26:46.794Z,97381.56
2023-12-23T14:28:49.700Z,97376.28
2023-12-23T14:30:52.764Z,97373.38
2023-12-23T14:32:55.690Z,97369.09
2023-12-23T14:34:58.787Z,97369.38
2023-12-23T14:37:01.617Z,97377.97
2023-12-23T14:39:04.407Z,97372.34
2023-12-23T14:41:07.389Z,97386.84
2023-12-23T14:43:10.134Z,97389.34
2023-12-23T14:45:13.229Z,97394.63
2023-12-23T14:47:16.321Z,97394.81
2023-12-23T14:49:19.281Z,97388.75
2023-12-23T14:51:24.647Z,97389.84
2023-12-23T14:53:29.369Z,97379.88
2023-12-23T14:55:32.177Z,97369.41
2023-12-23T14:57:35.040Z,97366.09
2023-12-23T14:59:37.923Z,97357.91
2023-12-23T15:01:40.750Z,97358.72
2023-12-23T15:03:43.662Z,97355.50
2023-12-23T15:05:46.557Z,97349.63
2023-12-23T15:07:49.445Z,97351.25
2023-12-23T15:09:52.608Z,97352.81
2023-12-23T15:11:55.464Z,97345.75
2023-12-23T15:13:58.300Z,97343.06
2023-12-23T15:16:01.184Z,97329.19
2023-12-23T15:18:04.478Z,97332.94
2023-12-23T15:20:08.230Z,97337.75
2023-12-23T15:22:11.150Z,97342.44
2023-12-23T15:24:13.938Z,97337.31
2023-12-23T15:26:17.056Z,97340.13
2023-12-23T15:28:20.053Z,97338.31
2023-12-23T15:30:22.793Z,97333.94
2023-12-23T15:32:25.911Z,97330.47
2023-12-23T15:34:28.954Z,97327.75
2023-12-23T15:36:31.996Z,97327.34
2023-12-23T15:38:35.117Z,97327.13
2023-12-23T15:40:38.503Z,97333.03
2023-12-23T15:42:41.390Z,97332.34
2023-12-23T15:44:44.494Z,97329.84
2023-12-23T15:46:47.499Z,97328.44
2023-12-23T15:48:50.406Z,97343.19
2023-12-23T15:50:53.171Z,97331.94
2023-12-23T15:52:56.075Z,97332.53
2023-12-23T15:54:59.195Z,97336.22
2023-12-23T15:57:05.729Z,97332.94
2023-12-23T15:59:08.598Z,97338.31
2023-12-23T16:01:13.210Z,97335.34
2023-12-23T16:03:16.090Z,97328.94
2023-12-23T16:05:19.041Z,97318.66
2023-12-23T16:07:21.968Z,97329.16
2023-12-23T16:09:24.694Z,97334.84
2023-12-23T16:11:27.527Z,97329.53
2023-12-23T16:13:30.616Z,97316.19
2023-12-23T16:15:34.025Z,97319.16
2023-12-23T16:17:37.001Z,97309.50
2023-12-23T16:19:39.925Z,97311.59
2023-12-23T16:21:43.095Z,97307.69
2023-12-23T16:23:47.144Z,97312.25
2023-12-23T16:25:50.015Z,97306.88
2023-12-23T16:27:52.879Z,97311.19
2023-12-23T16:29:55.619Z,97305.00
2023-12-23T16:32:01.431Z,97308.19
2023-12-23T16:34:06.006Z,97318.16
2023-12-23T16:36:11.796Z,97319.53
2023-12-23T16:38:14.691Z,97327.72
2023-12-23T16:40:17.575Z,97317.53
2023-12-23T16:42:22.150Z,97298.88
2023-12-23T16:44:25.139Z,97303.75
2023-12-23T16:46:28.842Z,97303.38
2023-12-23T16:48:31.840Z,97293.22
2023-12-23T16:50:35.307Z,97299.72
2023-12-23T16:52:38.553Z,97288.13
2023-12-23T16:54:41.249Z,97292.19
2023-12-23T16:56:44.118Z,97291.63
2023-12-23T16:58:48.519Z,97280.13
2023-12-23T17:00:52.048Z,97272.84
2023-12-23T17:02:55.287Z,97269.66
2023-12-23T17:04:58.450Z,97282.03
2023-12-23T17:07:01.309Z,97278.75
2023-12-23T17:09:05.817Z,97283.34
2023-12-23T17:11:08.624Z,97282.53
2023-12-23T17:13:11.501Z,97284.72
2023-12-23T17:15:14.257Z,97289.00
2023-12-23T17:17:17.388Z,97287.41
2023-12-23T17:19:20.368Z,97280.41
2023-12-23T17:21:23.269Z,97285.00
2023-12-23T17:23:27.370Z,97278.84
2023-12-23T17:25:30.144Z,97284.03
2023-12-23T17:27:32.857Z,97284.50
2023-12-23T17:29:36.213Z,97276.44
2023-12-23T17:31:38.995Z,97273.16
2023-12-23T17:33:42.071Z,97274.47
2023-12-23T17:35:45.055Z,97273.44
2023-12-23T17:37:49.586Z,97274.34
2023-12-23T17:39:53.025Z,97268.44
2023-12-23T17:41:55.892Z,97278.03
2023-12-23T17:43:58.607Z,97270.56
2023-12-23T17:46:01.362Z,97273.84
2023-12-23T17:48:05.323Z,97271.94
2023-12-23T17:50:09.804Z,97268.97
2023-12-23T17:52:12.817Z,97273.53
2023-12-23T17:54:16.072Z,97275.50
2023-12-23T17:56:21.834Z,97265.06
2023-12-23T17:58:24.821Z,97259.69
2023-12-23T18:00:27.772Z,97255.88
2023-12-23T18:02:30.581Z,97258.38
2023-12-23T18:04:33.582Z,97254.06
2023-12-23T18:06:36.427Z,97258.66
2023-12-23T18:08:39.222Z,97254.59
2023-12-23T18:10:42.096Z,97253.38
2023-12-23T18:12:44.928Z,97267.03
2023-12-23T18:14:47.667Z,97273.22
2023-12-23T18:16:50.391Z,97273.22
2023-12-23T18:18:53.357Z,97262.25
2023-12-23T18:20:56.107Z,97272.41
2023-12-23T18:22:59.058Z,97269.25
2023-12-23T18:25:01.903Z,97263.84
2023-12-23T18:27:06.767Z,97270.53
2023-12-23T18:29:09.557Z,97256.16
2023-12-23T18:31:12.393Z,97260.66
2023-12-23T18:33:17.126Z,97250.19
2023-12-23T18:35:20.281Z,97250.19
2023-12-23T18:37:25.100Z,97250.47
2023-12-23T18:39:32.067Z,97238.81
2023-12-23T18:41:36.314Z,97243.69
2023-12-23T18:43:39.776Z,97235.13
2023-12-23T18:45:42.578Z,97243.50
2023-12-23T18:47:47.977Z,97230.72
2023-12-23T18:49:51.153Z,97244.78
2023-12-23T18:51:54.446Z,97237.84
2023-12-23T18:53:57.500Z,97237.31
2023-12-23T18:56:00.495Z,97232.84
2023-12-23T18:58:03.724Z,97238.00
2023-12-23T19:00:07.617Z,97236.41
2023-12-23T19:02:12.271Z,97242.06
2023-12-23T19:04:15.279Z,97226.22
2023-12-23T19:06:18.159Z,97228.91
2023-12-23T19:08:21.059Z,97219.25
2023-12-23T19:10:24.478Z,97225.94
2023-12-23T19:12:27.504Z,97214.88
2023-12-23T19:14:30.398Z,97215.16
2023-12-23T19:16:34.080Z,97213.88
2023-12-23T19:18:37.293Z,97217.16
2023-12-23T19:20:40.389Z,97208.28
2023-12-23T19:22:44.833Z,97201.59
2023-12-23T19:24:47.537Z,97208.06
2023-12-23T19:26:51.631Z,97212.16
2023-12-23T19:28:54.890Z,97209.38
2023-12-23T19:30:58.604Z,97216.84
2023-12-23T19:33:01.671Z,97211.97
2023-12-23T19:35:04.836Z,97217.34
2023-12-23T19:37:07.734Z,97217.16
2023-12-23T19:39:11.132Z,97214.97
2023-12-23T19:41:14.659Z,97210.56
2023-12-23T19:43:19.923Z,97213.59
2023-12-23T19:45:23.876Z,97221.06
2023-12-23T19:47:27.239Z,97219.53
2023-12-23T19:49:30.274Z,97221.34
2023-12-23T19:51:34.941Z,97219.47
2023-12-23T19:53:37.837Z,97212.19
2023-12-23T19:55:40.845Z,97208.78
2023-12-23T19:57:43.611Z,97192.44
2023-12-23T19:59:46.363Z,97212.97
2023-12-23T20:01:49.225Z,97202.00
2023-12-23T20:03:54.476Z,97191.84
2023-12-23T20:05:57.335Z,97195.81
2023-12-23T20:08:00.209Z,97197.44
2023-12-23T20:10:03.869Z,97194.16
2023-12-23T20:12:10.609Z,97195.25
2023-12-23T20:14:13.627Z,97202.50
2023-12-23T20:16:29.216Z,97211.97
2023-12-23T20:18:33.130Z,97203.00
2023-12-23T20:20:36.084Z,97217.25
2023-12-23T20:22:40.079Z,97207.09
2023-12-23T20:24:42.788Z,97208.91
2023-12-23T20:26:45.695Z,97208.50
2023-12-23T20:28:48.696Z,97200.22
2023-12-23T20:30:51.491Z,97194.03
2023-12-23T20:32:54.593Z,97194.84
2023-12-23T20:34:57.531Z,97194.38
2023-12-23T20:37:02.608Z,97187.09
2023-12-23T20:39:06.276Z,97186.28
2023-12-23T20:41:10.850Z,97180.91
2023-12-23T20:43:13.965Z,97183.88
2023-12-23T20:45:16.920Z,97177.50
2023-12-23T20:47:19.898Z,97185.47
2023-12-23T20:49:23.032Z,97182.50
2023-12-23T20:51:25.940Z,97179.56
2023-12-23T20:53:29.361Z,97186.75
2023-12-23T20:55:32.552Z,97181.69
2023-12-23T20:57:35.451Z,97183.00
2023-12-23T20:59:38.793Z,97169.41
2023-12-23T21:01:41.758Z,97176.69
2023-12-23T21:03:44.710Z,97168.91
2023-12-23T21:05:47.826Z,97163.84
2023-12-23T21:07:51.484Z,97160.56
2023-12-23T21:09:56.479Z,97150.47
2023-12-23T21:11:59.338Z,97155.34
2023-12-23T21:14:02.300Z,97155.56
2023-12-23T21:16:05.473Z,97143.31
2023-12-23T21:18:08.404Z,97160.97
2023-12-23T21:20:11.537Z,97155.34
2023-12-23T21:22:14.555Z,97149.19
2023-12-23T21:24:17.329Z,97150.47
2023-12-23T21:26:24.367Z,97149.41
2023-12-23T21:28:27.569Z,97143.69
2023-12-23T21:30:31.891Z,97135.44
2023-12-23T21:32:35.146Z,97125.19
2023-12-23T21:34:38.155Z,97118.78
2023-12-23T21:36:41.102Z,97121.19
2023-12-23T21:38:43.889Z,97121.47
2023-12-23T21:40:47.521Z,97107.03
2023-12-23T21:42:50.936Z,97111.00
2023-12-23T21:44:53.950Z,97107.53
2023-12-23T21:46:56.923Z,97108.03
2023-12-23T21:49:00.630Z,97107.44
2023-12-23T21:51:04.302Z,97107.44
2023-12-23T21:53:07.244Z,97106.63
2023-12-23T21:55:10.272Z,97106.91
2023-12-23T21:57:13.111Z,97111.72
2023-12-23T21:59:16.058Z,97115.72
2023-12-23T22:01:19.115Z,97102.53
2023-12-23T22:03:21.906Z,97096.56
2023-12-23T22:05:24.965Z,97092.00
2023-12-23T22:07:28.029Z,97089.81
2023-12-23T22:09:31.341Z,97095.06
2023-12-23T22:11:34.395Z,97090.59
2023-12-23T22:13:37.362Z,97092.50
2023-12-23T22:15:40.198Z,97092.50
2023-12-23T22:17:43.483Z,97089.31
2023-12-23T22:19:47.769Z,97086.91
2023-12-23T22:21:51.628Z,97079.94
2023-12-23T22:23:54.557Z,97084.50
2023-12-23T22:25:57.453Z,97071.53
2023-12-23T22:28:00.316Z,97073.25
2023-12-23T22:30:03.189Z,97074.22
2023-12-23T22:32:08.322Z,97066.38
2023-12-23T22:34:11.795Z,97060.19
2023-12-23T22:36:14.583Z,97055.28
2023-12-23T22:38:17.354Z,97034.88
2023-12-23T22:40:21.000Z,97035.34
2023-12-23T22:42:24.017Z,97031.06
2023-12-23T22:44:26.887Z,97033.16
2023-12-23T22:46:29.763Z,97018.41
2023-12-23T22:48:32.622Z,97007.44
2023-12-23T22:50:35.530Z,97002.69
2023-12-23T22:52:38.353Z,97007.84
2023-12-23T22:54:41.134Z,96996.31
2023-12-23T22:56:44.024Z,96993.09
2023-12-23T22:58:47.345Z,96991.53
2023-12-23T23:00:50.152Z,96988.34
2023-12-23T23:02:53.408Z,96975.97
2023-12-23T23:04:56.702Z,96979.78
2023-12-23T23:06:59.608Z,96982.66
2023-12-23T23:09:02.329Z,96988.06
2023-12-23T23:11:05.468Z,96978.19
2023-12-23T23:13:08.454Z,96992.94
2023-12-23T23:15:11.316Z,96988.63
2023-12-23T23:17:14.478Z,96988.84
2023-12-23T23:19:17.492Z,96987.44
2023-12-23T23:21:21.477Z,96981.25
2023-12-23T23:23:25.309Z,96977.16
2023-12-23T23:25:28.154Z,96979.06
2023-12-23T23:27:30.909Z,96979.25
2023-12-23T23:29:33.930Z,96988.09
2023-12-23T23:31:36.796Z,96986.53
2023-12-23T23:33:39.729Z,96982.56
2023-12-23T23:35:42.713Z,96978.47
2023-12-23T23:37:45.613Z,96982.16
2023-12-23T23:39:48.344Z,96972.88
2023-12-23T23:41:51.113Z,96974.78
2023-12-23T23:43:53.917Z,96980.94
2023-12-23T23:45:56.899Z,96985.41
2023-12-23T23:47:59.658Z,96977.47
2023-12-23T23:50:06.018Z,96975.75
2023-12-23T23:52:10.991Z,96977.84
2023-12-23T23:54:13.769Z,96971.38
2023-12-23T23:56:20.326Z,96974.53
2023-12-23T23:58:24.131Z,96980.03
